Time;durP1;ratioP1;P1;durP2;ratioP2;P2;SDS_P1;SDS_P2;PMS_P1;PMS_P2;Temp;Humidity;BMP_temperature;BMP_pressure;BME280_temperature;BME280_humidity;BME280_pressure;Samples;Min_cycle;Max_cycle;Signal;HPM_P1;HPM_P2
2022/02/25 00:01:37;;;;;;;;;;;;;;;4.84;68.98;100030.06;4906097;29;19923;-81
2022/02/25 00:04:02;;;;;;;;;;;;;;;4.90;69.12;100030.81;4918725;29;19923;-83
2022/02/25 00:06:27;;;;;;;;;;;;;;;4.88;69.11;100031.72;4905658;29;19926;-84
2022/02/25 00:08:53;;;;;;;;;;;;;;;4.90;69.33;100036.06;4918440;29;19927;-84
2022/02/25 00:11:18;;;;;;;;;;;;;;;4.91;69.33;100035.19;4922501;29;19938;-83
2022/02/25 00:13:44;;;;;;;;;;;;;;;4.90;69.10;100043.94;4920807;29;20021;-84
2022/02/25 00:16:09;;;;;;;;;;;;;;;4.95;69.32;100048.28;4919682;29;20490;-84
2022/02/25 04:26:56;;;;;;;;;;;;;;;2.76;87.37;100210.31;5536665;23;19965;-83
2022/02/25 04:29:23;;;;;;;;;;;;;;;2.54;86.87;100210.41;4942920;28;20362;-84
2022/02/25 04:31:48;;;;;;;;;;;;;;;2.45;86.90;100208.69;4923879;29;19982;-84
2022/02/25 04:34:13;;;;;;;;;;;;;;;2.38;86.59;100209.59;4923666;29;19962;-83
2022/02/25 04:36:38;;;;;;;;;;;;;;;2.40;85.84;100214.81;4941061;28;19927;-83
2022/02/25 04:39:05;;;;;;;;;;;;;;;2.32;85.05;100222.69;4941382;29;20327;-83
2022/02/25 04:41:30;;;;;;;;;;;;;;;2.24;84.58;100220.06;4938147;29;20017;-84
2022/02/25 04:43:56;;;;;;;;;;;;;;;2.12;84.48;100218.38;4940070;29;20017;-87
2022/02/25 04:46:24;;;;;;;;;;;;;;;2.07;83.71;100225.31;4940180;28;20378;-84
2022/02/25 04:48:49;;;;;;;;;;;;;;;1.94;83.45;100221.84;4923029;29;19922;-83
2022/02/25 04:51:18;;;;;;;;;;;;;;;1.95;83.21;100214.91;4939306;29;19925;-83
2022/02/25 04:53:43;;;;;;;;;;;;;;;1.86;82.86;100214.91;4940058;29;20085;-84
2022/02/25 04:56:10;;;;;;;;;;;;;;;1.72;82.18;100212.28;4937999;29;20406;-84
2022/02/25 04:58:35;;;;;;;;;;;;;;;1.84;83.28;100219.25;4921703;29;20305;-83
2022/02/25 05:01:03;;;;;;;;;;;;;;;1.98;85.77;100234.06;4938997;29;19926;-83
2022/02/25 05:03:29;;;;;;;;;;;;;;;1.95;86.20;100227.97;4942607;28;19925;-83
2022/02/25 05:05:54;;;;;;;;;;;;;;;1.85;86.17;100232.31;4943647;29;19919;-83
2022/02/25 05:08:20;;;;;;;;;;;;;;;1.89;86.46;100231.44;4943465;29;20424;-84
2022/02/25 05:10:45;;;;;;;;;;;;;;;1.75;86.10;100243.63;4940470;28;20301;-84
2022/02/25 05:13:10;;;;;;;;;;;;;;;1.58;86.09;100246.22;4925482;29;19937;-84
2022/02/25 05:21:03;;;;;;;;;;;;;;;1.43;85.88;100247.09;4942501;29;20012;-86
2022/02/25 05:23:29;;;;;;;;;;;;;;;1.35;85.69;100251.41;4943545;29;19955;-85
2022/02/25 05:25:54;;;;;;;;;;;;;;;1.32;85.16;100256.63;4924782;29;19970;-85
2022/02/25 05:28:19;;;;;;;;;;;;;;;1.26;84.99;100254.88;4942810;29;20329;-85
2022/02/25 08:45:41;;;;;;;;;;;;;;;3.19;78.24;100430.09;5049686;23;19930;-82
2022/02/25 08:48:06;;;;;;;;;;;;;;;3.18;78.02;100425.75;4952065;28;20163;-81
2022/02/25 08:50:31;;;;;;;;;;;;;;;3.19;77.67;100425.75;4951161;28;19965;-82
2022/02/25 08:52:57;;;;;;;;;;;;;;;3.19;77.69;100430.09;4950719;28;19929;-81
2022/02/25 08:55:23;;;;;;;;;;;;;;;3.22;77.47;100425.75;4948305;28;20433;-82
2022/02/25 08:57:48;;;;;;;;;;;;;;;3.19;77.29;100430.09;4948543;28;19969;-82
2022/02/25 09:00:15;;;;;;;;;;;;;;;3.18;77.23;100431.00;4947743;28;20377;-82
2022/02/25 09:02:41;;;;;;;;;;;;;;;3.16;77.02;100427.47;4931878;29;19923;-82
2022/02/25 09:05:07;;;;;;;;;;;;;;;3.21;76.84;100428.38;4948828;29;20576;-82
2022/02/25 09:07:32;;;;;;;;;;;;;;;3.20;76.47;100431.84;4948019;29;20152;-82
2022/02/25 09:09:58;;;;;;;;;;;;;;;3.25;76.71;100428.31;4946990;29;19989;-82
2022/02/25 09:12:23;;;;;;;;;;;;;;;3.18;76.59;100429.22;4947453;28;20098;-83
2022/02/25 09:14:49;;;;;;;;;;;;;;;3.22;76.37;100422.22;4947540;28;19985;-82
2022/02/25 09:17:14;;;;;;;;;;;;;;;3.24;75.96;100430.97;4949003;28;19922;-82
2022/02/25 09:19:40;;;;;;;;;;;;;;;3.34;75.68;100427.44;4949925;28;19922;-81
2022/02/25 09:22:06;;;;;;;;;;;;;;;3.38;75.29;100423.94;4948343;29;19919;-81
2022/02/25 09:24:31;;;;;;;;;;;;;;;3.28;75.04;100415.22;4949712;29;19923;-82
2022/02/25 09:26:56;;;;;;;;;;;;;;;3.32;74.97;100415.22;4946714;28;19949;-82
2022/02/25 09:29:22;;;;;;;;;;;;;;;3.34;74.76;100430.06;4946523;28;19973;-82
2022/02/25 09:31:47;;;;;;;;;;;;;;;3.41;74.83;100428.28;4947644;29;20290;-82
2022/02/25 09:34:12;;;;;;;;;;;;;;;3.38;74.87;100430.91;4948332;28;20602;-81
2022/02/25 09:36:38;;;;;;;;;;;;;;;3.38;74.90;100437.03;4949414;28;19919;-83
2022/02/25 09:39:03;;;;;;;;;;;;;;;3.41;74.74;100442.25;4947082;28;19918;-82
2022/02/25 09:41:29;;;;;;;;;;;;;;;3.42;74.55;100437.91;4945166;28;19985;-82
2022/02/25 09:43:55;;;;;;;;;;;;;;;3.45;74.35;100437.91;4944164;28;19926;-82
2022/02/25 09:46:20;;;;;;;;;;;;;;;3.42;74.50;100444.00;4947595;28;19933;-82
2022/02/25 09:48:45;;;;;;;;;;;;;;;3.41;74.65;100447.50;4944919;28;19938;-82
2022/02/25 09:51:11;;;;;;;;;;;;;;;3.43;74.65;100443.13;4948160;29;20020;-82
2022/02/25 09:53:38;;;;;;;;;;;;;;;3.39;74.61;100446.63;4929472;29;20313;-83
2022/02/25 09:56:04;;;;;;;;;;;;;;;3.44;74.45;100450.09;4948281;28;19925;-82
2022/02/25 09:58:30;;;;;;;;;;;;;;;3.42;74.43;100454.47;4944973;29;19919;-82
2022/02/25 10:00:55;;;;;;;;;;;;;;;3.53;74.42;100457.06;4948202;29;19918;-82
2022/02/25 10:03:25;;;;;;;;;;;;;;;3.50;74.52;100464.09;4947676;29;19918;-82
2022/02/25 10:05:50;;;;;;;;;;;;;;;3.50;74.69;100469.31;4946450;28;20263;-83
2022/02/25 10:08:17;;;;;;;;;;;;;;;3.53;74.59;100471.94;4927512;29;19925;-83
2022/02/25 10:10:43;;;;;;;;;;;;;;;3.55;74.57;100475.41;4943624;28;20040;-82
2022/02/25 10:13:08;;;;;;;;;;;;;;;3.51;74.16;100476.28;4938581;28;20191;-83
2022/02/25 10:15:36;;;;;;;;;;;;;;;3.54;74.25;100489.38;4943579;28;20350;-83
2022/02/25 10:18:02;;;;;;;;;;;;;;;3.53;74.31;100483.28;4942293;28;20122;-83
2022/02/25 10:20:27;;;;;;;;;;;;;;;3.58;73.82;100481.50;4942980;28;19926;-82
2022/02/25 10:22:53;;;;;;;;;;;;;;;3.63;73.75;100478.88;4942902;29;19934;-83
2022/02/25 10:25:21;;;;;;;;;;;;;;;3.59;73.66;100490.22;4929504;29;20044;-82
2022/02/25 10:27:46;;;;;;;;;;;;;;;3.57;73.60;100481.50;4945186;29;19931;-82
2022/02/25 10:30:16;;;;;;;;;;;;;;;3.61;73.49;100484.13;4943784;29;19930;-82
2022/02/25 10:32:45;;;;;;;;;;;;;;;3.58;73.19;100483.28;4926806;29;19923;-82
2022/02/25 10:35:19;;;;;;;;;;;;;;;3.63;73.39;100484.13;4943469;28;19923;-81
2022/02/25 10:37:59;;;;;;;;;;;;;;;3.64;73.51;100480.63;4944958;29;19929;-82
2022/02/25 10:40:25;;;;;;;;;;;;;;;3.60;73.47;100484.13;4944785;28;19926;-81
2022/02/25 10:42:50;;;;;;;;;;;;;;;3.67;73.24;100490.22;4928192;29;19922;-83
2022/02/25 10:45:32;;;;;;;;;;;;;;;3.67;72.88;100490.22;4925792;29;19934;-83
2022/02/25 10:48:02;;;;;;;;;;;;;;;3.67;72.75;100480.63;4940147;29;20097;-83
2022/02/25 10:50:28;;;;;;;;;;;;;;;3.69;72.52;100486.72;4925661;29;19926;-83
2022/02/25 10:52:54;;;;;;;;;;;;;;;3.71;72.41;100477.09;4927129;29;19918;-82
2022/02/25 10:55:21;;;;;;;;;;;;;;;3.70;72.42;100485.84;4943619;28;20118;-82
2022/02/25 10:57:47;;;;;;;;;;;;;;;3.73;72.61;100485.81;4944631;29;19918;-82
2022/02/25 11:00:13;;;;;;;;;;;;;;;3.71;72.51;100477.09;4941980;28;20397;-82
2022/02/25 11:02:40;;;;;;;;;;;;;;;3.70;72.41;100479.72;4945869;28;19981;-82
2022/02/25 11:05:05;;;;;;;;;;;;;;;3.75;72.63;100477.94;4944198;29;19993;-82
2022/02/25 11:07:31;;;;;;;;;;;;;;;3.73;72.59;100475.34;4946164;29;20584;-82
2022/02/25 11:09:57;;;;;;;;;;;;;;;3.79;72.27;100472.69;4946150;29;20215;-82
2022/02/25 11:12:23;;;;;;;;;;;;;;;3.80;72.07;100487.56;4946359;29;20393;-82
2022/02/25 11:14:49;;;;;;;;;;;;;;;3.87;71.70;100483.16;4945637;29;19928;-82
2022/02/25 11:17:15;;;;;;;;;;;;;;;3.82;71.47;100484.94;4943948;28;19933;-82
2022/02/25 11:19:41;;;;;;;;;;;;;;;3.86;71.35;100489.28;4927431;29;19922;-82
2022/02/25 11:22:07;;;;;;;;;;;;;;;3.85;71.33;100494.53;4944849;29;19926;-82
2022/02/25 11:24:37;;;;;;;;;;;;;;;3.84;71.07;100487.53;4927602;29;20274;-82
2022/02/25 11:27:02;;;;;;;;;;;;;;;3.87;71.21;100495.41;4946508;29;20341;-82
2022/02/25 11:29:29;;;;;;;;;;;;;;;3.88;71.44;100491.88;4944744;29;19937;-82
2022/02/25 11:31:56;;;;;;;;;;;;;;;3.95;71.07;100494.47;4943981;28;19981;-82
2022/02/25 11:34:21;;;;;;;;;;;;;;;3.91;70.83;100495.38;4948286;28;19993;-81
2022/02/25 11:36:49;;;;;;;;;;;;;;;3.98;70.64;100498.84;4929260;29;20169;-82
2022/02/25 11:39:27;;;;;;;;;;;;;;;4.06;70.15;100499.69;4943800;29;19926;-81
2022/02/25 11:41:54;;;;;;;;;;;;;;;4.02;70.44;100505.84;4945453;28;19926;-82
2022/02/25 11:44:19;;;;;;;;;;;;;;;3.98;70.84;100504.94;4942501;29;20449;-82
2022/02/25 11:46:45;;;;;;;;;;;;;;;3.99;70.91;100505.84;4946524;29;20014;-82
2022/02/25 11:49:10;;;;;;;;;;;;;;;4.01;71.17;100509.31;4940249;28;19933;-83
2022/02/25 11:54:21;;;;;;;;;;;;;;;4.03;71.28;100506.69;4944699;28;20481;-82
2022/02/25 11:57:09;;;;;;;;;;;;;;;4.03;71.17;100510.19;4926283;29;20017;-82
2022/02/25 11:59:34;;;;;;;;;;;;;;;4.02;70.85;100507.56;4929976;29;20278;-81
2022/02/25 12:02:05;;;;;;;;;;;;;;;4.07;70.57;100501.44;4946135;28;19922;-82
2022/02/25 12:04:36;;;;;;;;;;;;;;;4.06;70.34;100498.81;4942732;28;20083;-84
2022/02/25 12:07:10;;;;;;;;;;;;;;;4.04;70.54;100511.94;4941572;28;19938;-82
2022/02/25 12:09:41;;;;;;;;;;;;;;;4.08;70.55;100508.41;4943861;29;19923;-82
2022/02/25 12:12:24;;;;;;;;;;;;;;;4.13;69.81;100511.00;4942337;28;20209;-82
2022/02/25 12:15:08;;;;;;;;;;;;;;;4.16;69.91;100506.63;4943101;29;19923;-83
2022/02/25 12:17:38;;;;;;;;;;;;;;;4.26;69.44;100511.81;4927183;29;20008;-82
2022/02/25 12:20:08;;;;;;;;;;;;;;;4.24;68.89;100517.06;4944339;29;19931;-82
2022/02/25 12:22:48;;;;;;;;;;;;;;;4.25;69.01;100515.34;4942791;28;20289;-82
2022/02/25 12:25:13;;;;;;;;;;;;;;;4.21;68.81;100519.69;4944601;29;20009;-83
2022/02/25 12:27:39;;;;;;;;;;;;;;;4.24;68.87;100513.56;4942695;28;19969;-84
2022/02/25 12:30:23;;;;;;;;;;;;;;;4.25;68.75;100512.72;4944524;28;19918;-83
2022/02/25 12:32:48;;;;;;;;;;;;;;;4.21;68.87;100503.09;4944312;28;19925;-83
2022/02/25 12:35:14;;;;;;;;;;;;;;;4.27;69.04;100505.69;4944484;28;19926;-83
2022/02/25 12:37:39;;;;;;;;;;;;;;;4.25;69.15;100503.06;4928620;29;19946;-83
2022/02/25 12:40:07;;;;;;;;;;;;;;;4.29;68.90;100503.94;4926627;29;20074;-82
2022/02/25 12:42:33;;;;;;;;;;;;;;;4.26;69.22;100511.81;4944123;29;19922;-82
2022/02/25 12:44:58;;;;;;;;;;;;;;;4.24;69.16;100503.94;4944314;29;19927;-83
2022/02/25 12:47:23;;;;;;;;;;;;;;;4.29;69.47;100511.78;4942871;28;19927;-83
2022/02/25 12:49:48;;;;;;;;;;;;;;;4.33;69.87;100510.91;4932958;29;19929;-82
2022/02/25 12:52:14;;;;;;;;;;;;;;;4.53;71.73;100513.41;4944257;28;20583;-83
2022/02/25 12:54:40;;;;;;;;;;;;;;;4.67;73.81;100514.16;4944315;29;19922;-83
2022/02/25 12:57:07;;;;;;;;;;;;;;;4.70;75.66;100518.53;4943771;28;19926;-83
2022/02/25 12:59:35;;;;;;;;;;;;;;;4.69;77.26;100522.03;4943289;28;19925;-82
2022/02/25 13:02:05;;;;;;;;;;;;;;;4.68;78.63;100515.06;4943187;29;19990;-83
2022/02/25 13:04:31;;;;;;;;;;;;;;;4.65;80.01;100520.34;4945182;28;20397;-83
2022/02/25 13:07:01;;;;;;;;;;;;;;;4.63;81.11;100517.72;4946169;29;19929;-84
2022/02/25 13:09:29;;;;;;;;;;;;;;;4.65;82.40;100521.19;4944594;28;19922;-83
2022/02/25 13:11:55;;;;;;;;;;;;;;;4.56;83.48;100521.25;4944437;28;19918;-83
2022/02/25 13:14:22;;;;;;;;;;;;;;;4.37;84.63;100517.88;4945182;29;19918;-83
2022/02/25 13:17:06;;;;;;;;;;;;;;;4.28;85.99;100520.56;4945523;29;20009;-82
2022/02/25 13:19:48;;;;;;;;;;;;;;;4.37;88.33;100523.13;4943212;28;19922;-82
2022/02/25 13:22:22;;;;;;;;;;;;;;;4.58;91.13;100519.50;4947319;29;19926;-83
2022/02/25 13:24:51;;;;;;;;;;;;;;;4.93;94.32;100522.75;4949032;28;20409;-82
2022/02/25 13:27:16;;;;;;;;;;;;;;;5.13;96.97;100526.06;4948631;28;19926;-83
2022/02/25 13:29:49;;;;;;;;;;;;;;;5.25;99.35;100512.84;4949799;28;19920;-83
2022/02/25 13:32:14;;;;;;;;;;;;;;;5.35;100.00;100507.50;4946688;28;20403;-83
2022/02/25 13:34:39;;;;;;;;;;;;;;;5.49;100.00;100518.75;4949246;28;19927;-83
2022/02/25 13:37:04;;;;;;;;;;;;;;;5.56;100.00;100504.63;4949122;29;20077;-83
2022/02/25 13:39:31;;;;;;;;;;;;;;;5.59;100.00;100504.59;4931401;29;19931;-83
2022/02/25 13:41:58;;;;;;;;;;;;;;;5.60;100.00;100502.84;4947101;29;19923;-83
2022/02/25 13:44:30;;;;;;;;;;;;;;;5.73;100.00;100498.34;4948842;28;19929;-83
2022/02/25 13:46:56;;;;;;;;;;;;;;;5.70;100.00;100501.84;4948068;29;20453;-83
2022/02/25 13:52:21;;;;;;;;;;;;;;;5.83;100.00;100505.22;4948616;29;20221;-83
2022/02/25 13:54:52;;;;;;;;;;;;;;;5.92;100.00;100505.13;4950259;29;20026;-83
2022/02/25 13:57:37;;;;;;;;;;;;;;;5.97;100.00;100502.47;4929676;29;20017;-83
2022/02/25 14:00:05;;;;;;;;;;;;;;;5.96;100.00;100485.78;4947157;28;19923;-83
2022/02/25 14:02:32;;;;;;;;;;;;;;;6.02;100.00;100491.88;4947874;29;19926;-84
2022/02/25 14:04:59;;;;;;;;;;;;;;;6.07;100.00;100492.69;4929267;29;19938;-83
2022/02/25 14:07:35;;;;;;;;;;;;;;;6.08;100.00;100482.13;4947611;29;19969;-83
2022/02/25 14:10:01;;;;;;;;;;;;;;;6.12;100.00;100485.59;4948175;29;19923;-83
2022/02/25 14:12:26;;;;;;;;;;;;;;;6.18;100.00;100496.03;4939665;29;19929;-83
2022/02/25 14:14:55;;;;;;;;;;;;;;;6.15;100.00;100485.56;4944917;29;19965;-82
2022/02/25 14:17:20;;;;;;;;;;;;;;;6.20;100.00;100493.38;4944898;28;20174;-83
2022/02/25 14:20:01;;;;;;;;;;;;;;;6.25;100.00;100492.41;4946578;29;19970;-83
2022/02/25 14:22:40;;;;;;;;;;;;;;;6.27;100.00;100488.03;4946890;29;19923;-83
2022/02/25 14:25:25;;;;;;;;;;;;;;;6.30;100.00;100481.81;4944550;29;20450;-83
2022/02/25 14:27:55;;;;;;;;;;;;;;;5.55;100.00;100499.38;4928566;29;19922;-83
2022/02/25 14:30:21;;;;;;;;;;;;;;;4.99;100.00;100480.66;4942779;28;19923;-84
2022/02/25 14:32:47;;;;;;;;;;;;;;;4.76;99.63;100491.38;4944622;29;19930;-83
2022/02/25 14:35:22;;;;;;;;;;;;;;;4.72;97.76;100485.25;4942042;28;20289;-85
2022/02/25 14:37:48;;;;;;;;;;;;;;;4.63;96.02;100485.34;4944266;28;20091;-84
2022/02/25 14:40:13;;;;;;;;;;;;;;;4.59;94.72;100478.38;4942859;28;20346;-83
2022/02/25 14:42:39;;;;;;;;;;;;;;;4.45;93.57;100486.34;4941443;28;19969;-84
2022/02/25 14:45:04;;;;;;;;;;;;;;;4.30;93.05;100495.19;4932669;29;20013;-85
2022/02/25 14:47:30;;;;;;;;;;;;;;;4.45;92.62;100491.59;4942752;28;19954;-84
2022/02/25 14:49:55;;;;;;;;;;;;;;;4.32;91.21;100488.16;4944402;28;20416;-83
2022/02/25 14:52:20;;;;;;;;;;;;;;;4.18;90.51;100494.38;4944129;29;20174;-82
2022/02/25 14:54:45;;;;;;;;;;;;;;;4.18;90.12;100497.00;4944263;29;19934;-84
2022/02/25 14:57:11;;;;;;;;;;;;;;;4.13;89.40;100484.78;4945241;28;19922;-84
2022/02/25 14:59:37;;;;;;;;;;;;;;;4.12;88.93;100489.16;4942304;28;19938;-84
2022/02/25 15:02:04;;;;;;;;;;;;;;;4.06;88.11;100486.56;4944181;28;19930;-83
2022/02/25 15:04:29;;;;;;;;;;;;;;;4.05;87.70;100478.69;4939616;28;20006;-85
2022/02/25 15:06:55;;;;;;;;;;;;;;;4.07;87.11;100490.94;4923027;29;20436;-85
2022/02/25 15:09:20;;;;;;;;;;;;;;;4.08;86.43;100479.53;4939146;29;19930;-84
2022/02/25 15:11:46;;;;;;;;;;;;;;;4.09;85.63;100481.31;4940639;29;19927;-83
2022/02/25 15:14:14;;;;;;;;;;;;;;;4.07;85.43;100485.69;4943710;28;19970;-85
2022/02/25 15:16:40;;;;;;;;;;;;;;;4.01;85.13;100477.84;4944220;28;19930;-83
2022/02/25 15:19:07;;;;;;;;;;;;;;;3.95;84.86;100488.38;4945497;29;20180;-86
2022/02/25 15:21:33;;;;;;;;;;;;;;;3.82;84.61;100482.31;4925660;29;20013;-85
2022/02/25 15:23:58;;;;;;;;;;;;;;;3.92;84.71;100493.63;4944515;29;20357;-83
2022/02/25 15:26:23;;;;;;;;;;;;;;;3.88;84.93;100487.53;4943253;29;19923;-83
2022/02/25 15:28:49;;;;;;;;;;;;;;;3.93;84.61;100482.28;4943101;28;20137;-84
2022/02/25 15:31:14;;;;;;;;;;;;;;;3.79;84.49;100480.56;4927531;29;20335;-83
2022/02/25 15:33:39;;;;;;;;;;;;;;;3.85;84.25;100484.06;4945419;29;20010;-84
2022/02/25 15:36:05;;;;;;;;;;;;;;;3.78;84.28;100491.03;4942762;29;20370;-83
2022/02/25 15:38:30;;;;;;;;;;;;;;;3.81;83.82;100488.41;4943932;28;20001;-83
2022/02/25 15:40:55;;;;;;;;;;;;;;;3.78;83.86;100491.94;4944638;28;19923;-84
2022/02/25 15:43:20;;;;;;;;;;;;;;;3.76;83.86;100485.81;4944407;29;20402;-83
2022/02/25 15:45:46;;;;;;;;;;;;;;;3.75;83.71;100485.81;4942249;28;19926;-82
2022/02/25 15:48:11;;;;;;;;;;;;;;;3.80;83.54;100484.06;4946448;28;19980;-84
2022/02/25 15:50:36;;;;;;;;;;;;;;;3.79;83.33;100490.19;4947388;28;19937;-83
2022/02/25 15:53:02;;;;;;;;;;;;;;;3.81;83.41;100489.31;4927383;29;19929;-84
2022/02/25 15:55:28;;;;;;;;;;;;;;;3.79;83.34;100492.81;4944501;29;19969;-83
2022/02/25 15:57:53;;;;;;;;;;;;;;;3.77;83.37;100498.06;4943121;28;20286;-84
2022/02/25 16:00:18;;;;;;;;;;;;;;;3.77;83.42;100520.78;4941004;28;19931;-83
2022/02/25 16:02:43;;;;;;;;;;;;;;;3.65;83.21;100513.81;4926317;29;20137;-82
2022/02/25 16:05:09;;;;;;;;;;;;;;;3.73;83.29;100521.66;4941441;28;19966;-84
2022/02/25 16:07:34;;;;;;;;;;;;;;;3.76;83.21;100537.38;4941865;29;19929;-83
2022/02/25 16:10:00;;;;;;;;;;;;;;;3.87;83.07;100553.09;4939190;28;19922;-84
2022/02/25 16:12:25;;;;;;;;;;;;;;;3.69;83.60;100549.63;4940771;29;19931;-84
2022/02/25 16:14:51;;;;;;;;;;;;;;;3.60;83.46;100573.25;4941126;28;19972;-84
2022/02/25 16:17:16;;;;;;;;;;;;;;;3.57;83.61;100588.97;4938811;28;20487;-84
2022/02/25 16:19:41;;;;;;;;;;;;;;;3.58;83.39;100593.34;4940586;29;20362;-85
2022/02/25 16:22:07;;;;;;;;;;;;;;;3.62;83.00;100598.59;4940472;29;20216;-85
2022/02/25 16:24:32;;;;;;;;;;;;;;;3.62;83.06;100588.09;4942324;28;20222;-85
2022/02/25 16:26:58;;;;;;;;;;;;;;;3.61;83.19;100593.34;4942146;28;20014;-83
2022/02/25 16:29:23;;;;;;;;;;;;;;;3.56;83.11;100600.34;4938473;28;19961;-84
2022/02/25 16:31:49;;;;;;;;;;;;;;;3.54;83.44;100620.41;4944383;28;20153;-84
2022/02/25 16:34:14;;;;;;;;;;;;;;;3.55;83.10;100601.22;4941181;29;19922;-83
2022/02/25 16:36:40;;;;;;;;;;;;;;;3.53;83.25;100582.00;4923914;29;20416;-85
2022/02/25 16:39:05;;;;;;;;;;;;;;;3.48;83.18;100599.44;4939795;29;20566;-84
2022/02/25 16:41:37;;;;;;;;;;;;;;;3.46;82.81;100594.22;4939771;29;19931;-85
2022/02/25 16:44:03;;;;;;;;;;;;;;;3.45;82.68;100605.59;4937999;29;19965;-85
2022/02/25 16:46:29;;;;;;;;;;;;;;;3.45;82.61;100616.94;4920858;29;19949;-85
2022/02/25 16:48:56;;;;;;;;;;;;;;;3.42;82.40;100621.31;4941639;28;20317;-85
2022/02/25 16:51:22;;;;;;;;;;;;;;;3.47;82.04;100623.94;4923855;29;19934;-82
2022/02/25 16:53:47;;;;;;;;;;;;;;;3.48;81.73;100628.28;4936653;28;19927;-85
2022/02/25 16:56:12;;;;;;;;;;;;;;;3.42;81.82;100648.38;4921782;29;19970;-86
2022/02/25 16:58:38;;;;;;;;;;;;;;;3.42;81.95;100655.38;4922570;29;19922;-86
2022/02/25 17:01:03;;;;;;;;;;;;;;;3.41;81.81;100661.47;4938240;29;19926;-86
2022/02/25 17:03:28;;;;;;;;;;;;;;;3.46;81.80;100667.56;4939487;29;19977;-88
2022/02/25 17:05:54;;;;;;;;;;;;;;;3.37;81.56;100675.47;4938055;29;19926;-86
2022/02/25 17:08:19;;;;;;;;;;;;;;;3.36;81.24;100674.56;4938877;29;19930;-87
2022/02/25 17:10:45;;;;;;;;;;;;;;;3.32;81.42;100680.69;4938711;28;20408;-86
2022/02/25 17:13:12;;;;;;;;;;;;;;;3.38;81.48;100685.94;4936417;29;19922;-87
2022/02/25 17:15:38;;;;;;;;;;;;;;;3.23;81.24;100692.00;4938088;29;19930;-86
2022/02/25 17:18:03;;;;;;;;;;;;;;;3.32;81.31;100696.41;4932029;28;20302;-86
2022/02/25 17:20:28;;;;;;;;;;;;;;;3.36;80.92;100695.53;4922403;29;19922;-87
2022/02/25 17:22:54;;;;;;;;;;;;;;;3.36;80.48;100706.00;4942502;28;19926;-86
2022/02/25 17:25:19;;;;;;;;;;;;;;;3.27;80.38;100692.88;4946167;28;20547;-85
2022/02/25 17:27:45;;;;;;;;;;;;;;;3.21;79.90;100700.75;4924503;29;19931;-85
2022/02/25 17:30:10;;;;;;;;;;;;;;;3.26;80.20;100693.78;4940927;29;20013;-86
2022/02/25 17:32:36;;;;;;;;;;;;;;;3.29;80.33;100693.78;4935202;28;19937;-86
2022/02/25 17:35:02;;;;;;;;;;;;;;;3.37;80.32;100697.28;4926026;29;20550;-85
2022/02/25 17:37:28;;;;;;;;;;;;;;;3.26;80.20;100712.97;4946748;28;19938;-85
2022/02/25 17:39:54;;;;;;;;;;;;;;;3.31;80.27;100717.38;4925383;28;19926;-85
2022/02/25 17:42:20;;;;;;;;;;;;;;;3.34;80.28;100713.00;4943556;28;19933;-83
2022/02/25 17:44:45;;;;;;;;;;;;;;;3.19;80.19;100720.81;4943824;28;19990;-85
2022/02/25 17:47:10;;;;;;;;;;;;;;;3.26;80.11;100730.44;4943931;29;19938;-85
2022/02/25 17:49:36;;;;;;;;;;;;;;;3.28;80.12;100726.06;4930956;29;19934;-85
2022/02/25 17:52:02;;;;;;;;;;;;;;;3.14;80.02;100725.16;4942344;28;19930;-87
2022/02/25 17:54:27;;;;;;;;;;;;;;;3.29;80.06;100730.47;4945308;28;19926;-86
2022/02/25 17:56:53;;;;;;;;;;;;;;;3.22;79.79;100733.91;4930198;29;19977;-83
2022/02/25 17:59:18;;;;;;;;;;;;;;;3.24;79.86;100738.31;4946042;28;19926;-88
2022/02/25 18:01:44;;;;;;;;;;;;;;;3.24;79.80;100733.06;4928489;29;19956;-85
2022/02/25 18:04:09;;;;;;;;;;;;;;;3.15;79.72;100740.88;4928180;29;19923;-86
2022/02/25 18:06:35;;;;;;;;;;;;;;;3.26;79.59;100746.16;4928067;29;19919;-87
2022/02/25 18:09:01;;;;;;;;;;;;;;;3.18;79.62;100750.50;4929537;28;20028;-86
2022/02/25 18:11:26;;;;;;;;;;;;;;;3.25;79.37;100749.66;4942517;29;19950;-85
2022/02/25 18:13:51;;;;;;;;;;;;;;;3.16;79.21;100754.84;4942034;28;19918;-87
2022/02/25 18:16:18;;;;;;;;;;;;;;;3.22;79.15;100752.25;4929662;29;19922;-85
2022/02/25 18:18:43;;;;;;;;;;;;;;;3.19;78.76;100753.13;4927715;29;19918;-85
2022/02/25 18:21:08;;;;;;;;;;;;;;;3.14;78.70;100751.38;4924035;28;19995;-88
2022/02/25 18:23:35;;;;;;;;;;;;;;;3.15;78.79;100758.38;4924199;29;20017;-85
2022/02/25 18:26:00;;;;;;;;;;;;;;;3.19;78.82;100762.72;4921224;29;19929;-85
2022/02/25 18:28:26;;;;;;;;;;;;;;;3.07;78.97;100767.06;4920235;29;19922;-85
2022/02/25 18:30:51;;;;;;;;;;;;;;;3.13;78.70;100766.22;4923198;29;20632;-85
2022/02/25 18:33:16;;;;;;;;;;;;;;;3.12;78.52;100772.31;4943653;28;20084;-84
2022/02/25 18:35:42;;;;;;;;;;;;;;;3.16;78.61;100770.56;4927000;29;20530;-84
2022/02/25 18:38:07;;;;;;;;;;;;;;;3.07;78.47;100767.06;4944896;28;19981;-85
2022/02/25 18:40:32;;;;;;;;;;;;;;;3.11;78.32;100772.31;4922922;28;19930;-86
2022/02/25 18:42:58;;;;;;;;;;;;;;;3.11;78.47;100782.78;4933342;28;19922;-85
2022/02/25 18:45:23;;;;;;;;;;;;;;;3.03;78.50;100786.25;4940778;28;19965;-85
2022/02/25 18:47:53;;;;;;;;;;;;;;;3.12;78.44;100784.53;4908560;29;19922;-85
2022/02/25 18:50:18;;;;;;;;;;;;;;;3.12;78.12;100787.16;4907025;29;19952;-86
2022/02/25 18:52:44;;;;;;;;;;;;;;;3.14;78.24;100794.13;4908502;29;19931;-86
2022/02/25 18:55:10;;;;;;;;;;;;;;;3.05;78.23;100797.59;4923916;29;20724;-85
2022/02/25 18:57:35;;;;;;;;;;;;;;;3.09;78.03;100796.75;4906003;29;19923;-85
2022/02/25 19:00:02;;;;;;;;;;;;;;;3.15;77.93;100795.91;4902729;29;20395;-86
2022/02/25 19:02:27;;;;;;;;;;;;;;;3.14;77.80;100801.13;4918368;29;19978;-85
2022/02/25 19:04:53;;;;;;;;;;;;;;;3.16;77.44;100804.63;4922230;29;19973;-86
2022/02/25 19:07:18;;;;;;;;;;;;;;;3.16;77.54;100797.66;4902921;29;19929;-86
2022/02/25 19:09:43;;;;;;;;;;;;;;;3.07;77.68;100811.56;4920414;29;19922;-86
2022/02/25 19:12:10;;;;;;;;;;;;;;;3.10;77.93;100813.34;4903341;29;19931;-87
2022/02/25 19:14:38;;;;;;;;;;;;;;;3.08;77.61;100808.09;4922538;29;19973;-85
2022/02/25 19:17:04;;;;;;;;;;;;;;;3.04;77.69;100816.78;4920642;29;19988;-84
2022/02/25 19:19:29;;;;;;;;;;;;;;;3.07;77.33;100813.31;4922799;29;20390;-85
2022/02/25 19:21:55;;;;;;;;;;;;;;;3.08;77.24;100826.44;4905560;29;19919;-86
2022/02/25 19:24:20;;;;;;;;;;;;;;;3.11;77.23;100829.91;4901770;29;19922;-85
2022/02/25 19:26:46;;;;;;;;;;;;;;;3.06;77.12;100832.50;4906048;29;19923;-84
2022/02/25 19:29:11;;;;;;;;;;;;;;;3.00;77.20;100830.75;4905468;29;19918;-85
2022/02/25 19:31:36;;;;;;;;;;;;;;;3.11;77.18;100835.16;4920596;29;19930;-85
2022/02/25 19:34:04;;;;;;;;;;;;;;;3.14;76.93;100840.41;4905403;29;19947;-86
2022/02/25 19:36:29;;;;;;;;;;;;;;;3.09;77.04;100843.00;4905260;29;19923;-87
2022/02/25 19:38:55;;;;;;;;;;;;;;;3.11;76.89;100840.41;4907382;29;20053;-87
2022/02/25 19:41:20;;;;;;;;;;;;;;;3.08;76.84;100842.13;4907259;29;20618;-87
2022/02/25 19:43:45;;;;;;;;;;;;;;;3.11;76.66;100846.50;4918684;29;20407;-87
2022/02/25 19:46:11;;;;;;;;;;;;;;;3.05;76.50;100852.59;4905523;29;19934;-88
2022/02/25 19:48:37;;;;;;;;;;;;;;;3.08;76.64;100852.63;4940652;28;20017;-86
2022/02/25 19:51:02;;;;;;;;;;;;;;;3.07;76.43;100852.59;4940546;29;19949;-86
2022/02/25 19:53:28;;;;;;;;;;;;;;;3.13;76.39;100855.25;4930710;28;19926;-87
2022/02/25 19:55:53;;;;;;;;;;;;;;;3.10;76.21;100855.25;4939406;28;20655;-87
2022/02/25 19:58:20;;;;;;;;;;;;;;;3.09;76.24;100859.63;4940281;28;19930;-87
2022/02/25 20:00:47;;;;;;;;;;;;;;;3.08;76.23;100857.00;4938001;28;19922;-87
2022/02/25 20:03:13;;;;;;;;;;;;;;;3.11;76.19;100866.59;4941246;28;19934;-87
2022/02/25 20:05:39;;;;;;;;;;;;;;;3.04;76.16;100866.56;4938771;29;20393;-86
2022/02/25 20:08:05;;;;;;;;;;;;;;;3.08;76.27;100862.22;4937983;28;20482;-85
2022/02/25 20:10:30;;;;;;;;;;;;;;;3.08;76.10;100870.94;4936324;29;19976;-84
2022/02/25 20:12:56;;;;;;;;;;;;;;;3.11;76.17;100874.44;4935679;28;19918;-85
2022/02/25 20:15:21;;;;;;;;;;;;;;;3.08;76.02;100877.94;4941935;28;19968;-85
2022/02/25 20:17:46;;;;;;;;;;;;;;;3.05;75.82;100889.25;4934867;29;19986;-86